sensor_id;sensor_type;location;lat;lon;timestamp;pressure;altitude;pressure_sealevel;temperature;humidity
2036;BME280;23642;42.658;23.350;2023-04-25T06:42:22;48065.56;;;-146.31;95.04
2036;BME280;23642;42.658;23.350;2023-04-25T06:45:04;48533.44;;;-146.31;92.39
2036;BME280;23642;42.658;23.350;2023-04-25T06:50:41;48745.75;;;-146.31;91.38
2036;BME280;23642;42.658;23.350;2023-04-25T06:53:12;49166.28;;;-146.31;87.99
2036;BME280;23642;42.658;23.350;2023-04-25T06:56:00;49333.28;;;-146.31;88.07
2036;BME280;23642;42.658;23.350;2023-04-25T08:44:54;51725.72;;;-146.31;64.83
2036;BME280;23642;42.658;23.350;2023-04-25T08:48:12;51758.75;;;-146.31;64.70
2036;BME280;23642;42.658;23.350;2023-04-25T08:59:25;51315.19;;;-146.31;73.96
2036;BME280;23642;42.658;23.350;2023-04-25T09:01:48;51088.28;;;-146.31;77.85
2036;BME280;23642;42.658;23.350;2023-04-25T09:04:20;51146.03;;;-146.31;75.54
2036;BME280;23642;42.658;23.350;2023-04-25T09:11:20;51129.53;;;-146.31;73.78
2036;BME280;23642;42.658;23.350;2023-04-25T09:14:32;50917.06;;;-146.31;74.48
2036;BME280;23642;42.658;23.350;2023-04-25T09:43:33;51335.81;;;-146.31;67.10
2036;BME280;23642;42.658;23.350;2023-04-25T09:46:32;51222.34;;;-146.31;68.28
2036;BME280;23642;42.658;23.350;2023-04-25T09:49:59;51057.31;;;-146.31;67.87
2036;BME280;23642;42.658;23.350;2023-04-25T09:53:10;50997.50;;;-146.31;65.01
2036;BME280;23642;42.658;23.350;2023-04-25T09:56:00;51148.09;;;-146.31;61.85
2036;BME280;23642;42.658;23.350;2023-04-25T10:10:56;51350.25;;;-146.31;65.93
2036;BME280;23642;42.658;23.350;2023-04-25T10:13:31;51288.38;;;-146.31;69.31
2036;BME280;23642;42.658;23.350;2023-04-25T10:16:20;51418.34;;;-146.31;69.68
2036;BME280;23642;42.658;23.350;2023-04-25T10:22:39;51480.22;;;-146.31;72.33
2036;BME280;23642;42.658;23.350;2023-04-25T10:25:27;52086.81;;;-146.31;63.77
2036;BME280;23642;42.658;23.350;2023-04-25T10:28:02;52097.13;;;-146.31;64.06
2036;BME280;23642;42.658;23.350;2023-04-25T10:30:59;52132.19;;;-146.31;61.58
2036;BME280;23642;42.658;23.350;2023-04-25T10:33:53;52068.22;;;-146.31;57.76
2036;BME280;23642;42.658;23.350;2023-04-25T10:36:23;52126.00;;;-146.31;53.21
2036;BME280;23642;42.658;23.350;2023-04-25T10:38:55;52416.97;;;-146.31;51.65
2036;BME280;23642;42.658;23.350;2023-04-25T10:52:34;52462.38;;;-146.31;58.66
2036;BME280;23642;42.658;23.350;2023-04-25T10:55:27;52421.09;;;-146.31;60.21
2036;BME280;23642;42.658;23.350;2023-04-25T10:58:35;52476.81;;;-146.31;58.48
2036;BME280;23642;42.658;23.350;2023-04-25T11:01:25;52668.72;;;-146.31;58.05
2036;BME280;23642;42.658;23.350;2023-04-25T11:04:32;52596.50;;;-146.31;57.93
2036;BME280;23642;42.658;23.350;2023-04-25T11:14:04;52456.19;;;-146.31;57.25
2036;BME280;23642;42.658;23.350;2023-04-25T11:20:22;52454.09;;;-146.31;53.81
2036;BME280;23642;42.658;23.350;2023-04-25T11:23:51;52383.94;;;-146.31;56.11
2036;BME280;23642;42.658;23.350;2023-04-25T11:35:42;52542.84;;;-146.31;65.28
2036;BME280;23642;42.658;23.350;2023-04-25T11:37:01;52408.72;;;-146.31;67.22
2036;BME280;23642;42.658;23.350;2023-04-25T11:39:37;52350.94;;;-146.31;67.20
2036;BME280;23642;42.658;23.350;2023-04-25T11:42:28;52377.75;;;-146.31;66.62
2036;BME280;23642;42.658;23.350;2023-04-25T11:49:48;52635.72;;;-146.31;63.44
2036;BME280;23642;42.658;23.350;2023-04-25T12:10:13;52047.59;;;-146.31;85.79
2036;BME280;23642;42.658;23.350;2023-04-25T12:29:33;51577.19;;;-146.31;69.55
2036;BME280;23642;42.658;23.350;2023-04-25T12:32:19;51562.75;;;-146.31;68.44
2036;BME280;23642;42.658;23.350;2023-04-25T12:35:26;51566.88;;;-146.31;66.05
2036;BME280;23642;42.658;23.350;2023-04-25T12:46:09;52159.03;;;-146.31;69.50
2036;BME280;23642;42.658;23.350;2023-04-25T12:48:32;52150.78;;;-146.31;75.32
2036;BME280;23642;42.658;23.350;2023-04-25T12:54:49;51358.50;;;-146.31;91.18
2036;BME280;23642;42.658;23.350;2023-04-25T13:15:09;50118.91;;;-146.31;95.34
2036;BME280;23642;42.658;23.350;2023-04-25T13:21:11;49795.16;;;-146.31;97.53
2036;BME280;23642;42.658;23.350;2023-04-25T13:24:14;49327.09;;;-146.31;99.29
2036;BME280;23642;42.658;23.350;2023-04-25T13:27:20;48941.59;;;-146.31;100.00
2036;BME280;23642;42.658;23.350;2023-04-25T13:29:57;48663.31;;;-146.31;100.00
2036;BME280;23642;42.658;23.350;2023-04-25T13:45:43;46891.03;;;-146.31;100.00
2036;BME280;23642;42.658;23.350;2023-04-25T14:01:20;46526.41;;;-146.31;100.00
2036;BME280;23642;42.658;23.350;2023-04-25T14:07:36;47715.22;;;-146.31;99.63
2036;BME280;23642;42.658;23.350;2023-04-25T14:10:08;47985.19;;;-146.31;98.49
2036;BME280;23642;42.658;23.350;2023-04-25T15:59:26;50407.63;;;-146.31;88.67
2036;BME280;23642;42.658;23.350;2023-04-25T16:01:57;50397.31;;;-146.31;88.28
2036;BME280;23642;42.658;23.350;2023-04-25T16:04:24;50378.75;;;-146.31;88.62
2036;BME280;23642;42.658;23.350;2023-04-25T16:07:03;50436.50;;;-146.31;87.86
2036;BME280;23642;42.658;23.350;2023-04-25T16:09:39;50457.13;;;-146.31;87.19
2036;BME280;23642;42.658;23.350;2023-04-25T16:12:08;50368.44;;;-146.31;88.40
2036;BME280;23642;42.658;23.350;2023-04-25T16:14:35;50387.00;;;-146.31;90.09
2036;BME280;23642;42.658;23.350;2023-04-25T16:17:02;50275.63;;;-146.31;92.24
2036;BME280;23642;42.658;23.350;2023-04-25T16:19:29;50170.44;;;-146.31;93.42
2036;BME280;23642;42.658;23.350;2023-04-25T16:22:04;50044.66;;;-146.31;94.15
2036;BME280;23642;42.658;23.350;2023-04-25T16:24:35;50106.53;;;-146.31;91.77
2036;BME280;23642;42.658;23.350;2023-04-25T16:27:04;50166.31;;;-146.31;91.29
2036;BME280;23642;42.658;23.350;2023-04-25T16:29:35;50246.75;;;-146.31;91.09
2036;BME280;23642;42.658;23.350;2023-04-25T16:32:02;50325.13;;;-146.31;89.36
2036;BME280;23642;42.658;23.350;2023-04-25T16:34:33;50428.25;;;-146.31;87.95
2036;BME280;23642;42.658;23.350;2023-04-25T16:37:01;50502.50;;;-146.31;86.14
2036;BME280;23642;42.658;23.350;2023-04-25T16:39:29;50576.75;;;-146.31;87.00
2036;BME280;23642;42.658;23.350;2023-04-25T16:42:01;50558.19;;;-146.31;88.01
2036;BME280;23642;42.658;23.350;2023-04-25T16:44:29;50473.63;;;-146.31;89.52
2036;BME280;23642;42.658;23.350;2023-04-25T16:46:56;50409.69;;;-146.31;90.75
2036;BME280;23642;42.658;23.350;2023-04-25T16:49:24;50290.06;;;-146.31;93.18
2036;BME280;23642;42.658;23.350;2023-04-25T16:51:54;50139.53;;;-146.31;94.83
2036;BME280;23642;42.658;23.350;2023-04-25T16:54:22;49937.44;;;-146.31;95.49
2036;BME280;23642;42.658;23.350;2023-04-25T16:56:50;49595.13;;;-146.31;97.26
2036;BME280;23642;42.658;23.350;2023-04-25T16:59:20;49331.22;;;-146.31;98.14
2036;BME280;23642;42.658;23.350;2023-04-25T17:01:47;48848.81;;;-146.31;100.00
2036;BME280;23642;42.658;23.350;2023-04-25T17:04:14;48539.63;;;-146.31;100.00
2036;BME280;23642;42.658;23.350;2023-04-25T17:06:41;48178.94;;;-146.31;100.00
2036;BME280;23642;42.658;23.350;2023-04-25T17:09:09;47908.94;;;-146.31;100.00
2036;BME280;23642;42.658;23.350;2023-04-25T17:11:40;47472.06;;;-146.31;100.00
2036;BME280;23642;42.658;23.350;2023-04-25T17:14:07;47082.66;;;-146.31;100.00
2036;BME280;23642;42.658;23.350;2023-04-25T17:16:37;46790.09;;;-146.31;100.00
2036;BME280;23642;42.658;23.350;2023-04-25T17:19:04;46435.75;;;-146.31;100.00
2036;BME280;23642;42.658;23.350;2023-04-25T17:21:31;46285.38;;;-146.31;100.00
2036;BME280;23642;42.658;23.350;2023-04-25T17:23:58;46207.13;;;-146.31;100.00
2036;BME280;23642;42.658;23.350;2023-04-25T17:26:25;46196.81;;;-146.31;100.00
2036;BME280;23642;42.658;23.350;2023-04-25T17:28:54;46289.50;;;-146.31;100.00
2036;BME280;23642;42.658;23.350;2023-04-25T17:31:21;46868.38;;;-146.31;100.00
2036;BME280;23642;42.658;23.350;2023-04-25T17:33:48;46969.34;;;-146.31;100.00
2036;BME280;23642;42.658;23.350;2023-04-25T17:36:15;46810.69;;;-146.31;100.00
2036;BME280;23642;42.658;23.350;2023-04-25T17:38:42;46891.03;;;-146.31;100.00
2036;BME280;23642;42.658;23.350;2023-04-25T17:41:09;46891.03;;;-146.31;100.00
2036;BME280;23642;42.658;23.350;2023-04-25T17:43:37;46921.94;;;-146.31;100.00
2036;BME280;23642;42.658;23.350;2023-04-25T17:46:06;46779.78;;;-146.31;100.00
2036;BME280;23642;42.658;23.350;2023-04-25T17:48:33;46674.72;;;-146.31;100.00
2036;BME280;23642;42.658;23.350;2023-04-25T17:51:00;46621.16;;;-146.31;100.00
2036;BME280;23642;42.658;23.350;2023-04-25T17:53:27;46567.59;;;-146.31;100.00
2036;BME280;23642;42.658;23.350;2023-04-25T17:55:54;46726.22;;;-146.31;100.00
2036;BME280;23642;42.658;23.350;2023-04-25T17:58:21;46969.34;;;-146.31;100.00
2036;BME280;23642;42.658;23.350;2023-04-25T18:00:48;46961.09;;;-146.31;100.00
2036;BME280;23642;42.658;23.350;2023-04-25T18:03:16;46816.88;;;-146.31;100.00
2036;BME280;23642;42.658;23.350;2023-04-25T18:05:48;46788.03;;;-146.31;100.00
2036;BME280;23642;42.658;23.350;2023-04-25T18:08:15;46753.00;;;-146.31;100.00
2036;BME280;23642;42.658;23.350;2023-04-25T18:10:46;46709.75;;;-146.31;100.00
2036;BME280;23642;42.658;23.350;2023-04-25T18:13:13;46678.84;;;-146.31;100.00
2036;BME280;23642;42.658;23.350;2023-04-25T18:15:41;46919.88;;;-146.31;100.00
2036;BME280;23642;42.658;23.350;2023-04-25T18:18:09;47125.91;;;-146.31;100.00
2036;BME280;23642;42.658;23.350;2023-04-25T18:20:45;47204.22;;;-146.31;100.00
2036;BME280;23642;42.658;23.350;2023-04-25T18:23:12;47148.59;;;-146.31;100.00
2036;BME280;23642;42.658;23.350;2023-04-25T18:25:39;47175.38;;;-146.31;100.00
2036;BME280;23642;42.658;23.350;2023-04-25T18:28:06;47187.72;;;-146.31;100.00
2036;BME280;23642;42.658;23.350;2023-04-25T18:30:35;47181.53;;;-146.31;100.00
2036;BME280;23642;42.658;23.350;2023-04-25T18:33:03;47307.22;;;-146.31;100.00
2036;BME280;23642;42.658;23.350;2023-04-25T18:35:30;47395.84;;;-146.31;100.00
2036;BME280;23642;42.658;23.350;2023-04-25T18:37:58;47480.31;;;-146.31;100.00
2036;BME280;23642;42.658;23.350;2023-04-25T18:40:25;47647.22;;;-146.31;99.34
2036;BME280;23642;42.658;23.350;2023-04-25T18:42:52;47884.22;;;-146.31;97.67
2036;BME280;23642;42.658;23.350;2023-04-25T18:45:19;48065.56;;;-146.31;97.14
2036;BME280;23642;42.658;23.350;2023-04-25T18:47:46;48059.38;;;-146.31;97.67
2036;BME280;23642;42.658;23.350;2023-04-25T18:50:13;47974.91;;;-146.31;98.56
2036;BME280;23642;42.658;23.350;2023-04-25T18:52:40;47921.31;;;-146.31;99.14
2036;BME280;23642;42.658;23.350;2023-04-25T18:55:09;48016.13;;;-146.31;98.17
2036;BME280;23642;42.658;23.350;2023-04-25T18:57:36;48032.59;;;-146.31;98.51
2036;BME280;23642;42.658;23.350;2023-04-25T19:00:04;47979.03;;;-146.31;98.49
2036;BME280;23642;42.658;23.350;2023-04-25T19:02:31;47904.81;;;-146.31;99.40
2036;BME280;23642;42.658;23.350;2023-04-25T19:04:58;47661.66;;;-146.31;100.00
2036;BME280;23642;42.658;23.350;2023-04-25T19:07:25;47793.53;;;-146.31;99.47
2036;BME280;23642;42.658;23.350;2023-04-25T19:09:55;47805.91;;;-146.31;99.71
2036;BME280;23642;42.658;23.350;2023-04-25T19:12:23;47785.31;;;-146.31;99.18
2036;BME280;23642;42.658;23.350;2023-04-25T19:14:50;47801.78;;;-146.31;99.10
2036;BME280;23642;42.658;23.350;2023-04-25T19:17:17;47735.84;;;-146.31;99.78
2036;BME280;23642;42.658;23.350;2023-04-25T19:19:44;47845.06;;;-146.31;99.36
2036;BME280;23642;42.658;23.350;2023-04-25T19:22:13;47964.59;;;-146.31;97.78
2036;BME280;23642;42.658;23.350;2023-04-25T19:24:40;48253.13;;;-146.31;96.71
2036;BME280;23642;42.658;23.350;2023-04-25T19:27:07;48364.44;;;-146.31;96.48
2036;BME280;23642;42.658;23.350;2023-04-25T19:29:35;48343.81;;;-146.31;97.03
2036;BME280;23642;42.658;23.350;2023-04-25T19:32:08;48391.22;;;-146.31;96.70
2036;BME280;23642;42.658;23.350;2023-04-25T19:34:35;48391.22;;;-146.31;96.71
2036;BME280;23642;42.658;23.350;2023-04-25T19:37:02;48376.78;;;-146.31;97.33
2036;BME280;23642;42.658;23.350;2023-04-25T19:39:29;48453.06;;;-146.31;96.49
2036;BME280;23642;42.658;23.350;2023-04-25T19:41:56;48543.75;;;-146.31;95.86
2036;BME280;23642;42.658;23.350;2023-04-25T19:44:23;48688.03;;;-146.31;95.36
2036;BME280;23642;42.658;23.350;2023-04-25T19:46:52;48683.91;;;-146.31;95.16
2036;BME280;23642;42.658;23.350;2023-04-25T19:49:19;48665.38;;;-146.31;96.02
2036;BME280;23642;42.658;23.350;2023-04-25T19:51:46;48745.75;;;-146.31;95.17
2036;BME280;23642;42.658;23.350;2023-04-25T19:54:13;48770.50;;;-146.31;94.97
2036;BME280;23642;42.658;23.350;2023-04-25T19:56:39;48708.66;;;-146.31;95.66
2036;BME280;23642;42.658;23.350;2023-04-25T19:59:06;48770.50;;;-146.31;95.39
2036;BME280;23642;42.658;23.350;2023-04-25T20:01:33;48741.63;;;-146.31;95.57
2036;BME280;23642;42.658;23.350;2023-04-25T20:04:02;48704.53;;;-146.31;95.92
2036;BME280;23642;42.658;23.350;2023-04-25T20:06:29;48525.19;;;-146.31;97.48
2036;BME280;23642;42.658;23.350;2023-04-25T20:08:57;48337.63;;;-146.31;98.26
2036;BME280;23642;42.658;23.350;2023-04-25T20:11:24;48238.69;;;-146.31;98.84
2036;BME280;23642;42.658;23.350;2023-04-25T20:13:52;48183.06;;;-146.31;98.52
2036;BME280;23642;42.658;23.350;2023-04-25T20:16:26;48387.09;;;-146.31;97.12
2036;BME280;23642;42.658;23.350;2023-04-25T20:18:53;48733.38;;;-146.31;94.63
2036;BME280;23642;42.658;23.350;2023-04-25T20:21:24;48968.38;;;-146.31;92.92
2036;BME280;23642;42.658;23.350;2023-04-25T20:23:51;49009.63;;;-146.31;93.07
2036;BME280;23642;42.658;23.350;2023-04-25T20:26:18;49028.16;;;-146.31;93.47
2036;BME280;23642;42.658;23.350;2023-04-25T20:28:45;49098.25;;;-146.31;93.39
2036;BME280;23642;42.658;23.350;2023-04-25T20:31:12;49046.72;;;-146.31;93.80
2036;BME280;23642;42.658;23.350;2023-04-25T20:33:39;48984.88;;;-146.31;94.84
2036;BME280;23642;42.658;23.350;2023-04-25T20:36:08;48918.91;;;-146.31;95.08
2036;BME280;23642;42.658;23.350;2023-04-25T20:38:36;48943.66;;;-146.31;95.17
2036;BME280;23642;42.658;23.350;2023-04-25T20:41:03;48869.44;;;-146.31;95.56
2036;BME280;23642;42.658;23.350;2023-04-25T20:43:31;48780.78;;;-146.31;96.16
2036;BME280;23642;42.658;23.350;2023-04-25T20:45:58;48786.97;;;-146.31;95.89
2036;BME280;23642;42.658;23.350;2023-04-25T20:48:25;48700.41;;;-146.31;97.08
2036;BME280;23642;42.658;23.350;2023-04-25T20:50:52;48597.34;;;-146.31;97.29
2036;BME280;23642;42.658;23.350;2023-04-25T20:53:19;48576.72;;;-146.31;96.87
2036;BME280;23642;42.658;23.350;2023-04-25T20:55:47;48556.13;;;-146.31;97.50
2036;BME280;23642;42.658;23.350;2023-04-25T20:58:14;48498.41;;;-146.31;97.67
2036;BME280;23642;42.658;23.350;2023-04-25T21:00:40;48325.25;;;-146.31;98.86
2036;BME280;23642;42.658;23.350;2023-04-25T21:03:08;48317.03;;;-146.31;98.16
2036;BME280;23642;42.658;23.350;2023-04-25T21:05:36;48370.59;;;-146.31;97.66
2036;BME280;23642;42.658;23.350;2023-04-25T21:08:03;48413.91;;;-146.31;97.51
2036;BME280;23642;42.658;23.350;2023-04-25T21:10:30;48411.84;;;-146.31;98.04
2036;BME280;23642;42.658;23.350;2023-04-25T21:12:58;48331.44;;;-146.31;97.99
2036;BME280;23642;42.658;23.350;2023-04-25T21:15:26;48352.06;;;-146.31;97.72
2036;BME280;23642;42.658;23.350;2023-04-25T21:17:54;48343.81;;;-146.31;97.55
2036;BME280;23642;42.658;23.350;2023-04-25T21:20:21;48370.59;;;-146.31;97.74
2036;BME280;23642;42.658;23.350;2023-04-25T21:22:49;48642.69;;;-146.31;95.24
2036;BME280;23642;42.658;23.350;2023-04-25T21:25:17;48688.03;;;-146.31;95.93
2036;BME280;23642;42.658;23.350;2023-04-25T21:27:51;48642.69;;;-146.31;95.96
2036;BME280;23642;42.658;23.350;2023-04-25T21:30:21;48564.34;;;-146.31;97.19
2036;BME280;23642;42.658;23.350;2023-04-25T21:32:48;48428.31;;;-146.31;97.27
2036;BME280;23642;42.658;23.350;2023-04-25T21:35:16;48702.47;;;-146.31;95.46
2036;BME280;23642;42.658;23.350;2023-04-25T21:37:43;48832.34;;;-146.31;95.03
2036;BME280;23642;42.658;23.350;2023-04-25T21:40:11;48692.16;;;-146.31;96.28
2036;BME280;23642;42.658;23.350;2023-04-25T21:42:38;48418.00;;;-146.31;98.07
2036;BME280;23642;42.658;23.350;2023-04-25T21:45:06;48300.53;;;-146.31;98.25
2036;BME280;23642;42.658;23.350;2023-04-25T21:47:38;48176.88;;;-146.31;99.19
2036;BME280;23642;42.658;23.350;2023-04-25T21:50:05;48047.03;;;-146.31;99.73
2036;BME280;23642;42.658;23.350;2023-04-25T21:52:32;47832.69;;;-146.31;100.00
2036;BME280;23642;42.658;23.350;2023-04-25T21:54:59;47667.84;;;-146.31;100.00
2036;BME280;23642;42.658;23.350;2023-04-25T21:57:26;47678.13;;;-146.31;100.00
2036;BME280;23642;42.658;23.350;2023-04-25T21:59:55;47665.78;;;-146.31;100.00
2036;BME280;23642;42.658;23.350;2023-04-25T22:02:23;47692.56;;;-146.31;100.00
2036;BME280;23642;42.658;23.350;2023-04-25T22:04:53;47719.34;;;-146.31;99.75
2036;BME280;23642;42.658;23.350;2023-04-25T22:07:21;47746.16;;;-146.31;99.77
2036;BME280;23642;42.658;23.350;2023-04-25T22:09:48;47744.09;;;-146.31;99.97
2036;BME280;23642;42.658;23.350;2023-04-25T22:12:14;47641.03;;;-146.31;100.00
2036;BME280;23642;42.658;23.350;2023-04-25T22:14:41;47408.19;;;-146.31;100.00
2036;BME280;23642;42.658;23.350;2023-04-25T22:17:08;47167.13;;;-146.31;100.00
2036;BME280;23642;42.658;23.350;2023-04-25T22:19:36;46985.81;;;-146.31;100.00
2036;BME280;23642;42.658;23.350;2023-04-25T22:22:04;46775.66;;;-146.31;100.00
2036;BME280;23642;42.658;23.350;2023-04-25T22:24:31;46674.72;;;-146.31;100.00
2036;BME280;23642;42.658;23.350;2023-04-25T22:26:58;46468.72;;;-146.31;100.00
2036;BME280;23642;42.658;23.350;2023-04-25T22:29:25;46353.38;;;-146.31;100.00
2036;BME280;23642;42.658;23.350;2023-04-25T22:31:52;46114.44;;;-146.31;100.00
2036;BME280;23642;42.658;23.350;2023-04-25T22:34:19;45976.44;;;-146.31;100.00
2036;BME280;23642;42.658;23.350;2023-04-25T22:36:46;45778.69;;;-146.31;100.00
2036;BME280;23642;42.658;23.350;2023-04-25T22:39:15;45541.88;;;-146.31;100.00
2036;BME280;23642;42.658;23.350;2023-04-25T22:41:43;45286.50;;;-146.31;100.00
2036;BME280;23642;42.658;23.350;2023-04-25T22:44:10;45037.34;;;-146.31;100.00
2036;BME280;23642;42.658;23.350;2023-04-25T22:46:37;44880.88;;;-146.31;100.00
2036;BME280;23642;42.658;23.350;2023-04-25T22:49:04;44699.69;;;-146.31;100.00
2036;BME280;23642;42.658;23.350;2023-04-25T22:51:33;44677.03;;;-146.31;100.00
2036;BME280;23642;42.658;23.350;2023-04-25T22:54:01;44467.03;;;-146.31;100.00
2036;BME280;23642;42.658;23.350;2023-04-25T22:56:29;44244.69;;;-146.31;100.00
2036;BME280;23642;42.658;23.350;2023-04-25T22:58:57;44119.13;;;-146.31;100.00
2036;BME280;23642;42.658;23.350;2023-04-25T23:01:24;43979.13;;;-146.31;100.00
2036;BME280;23642;42.658;23.350;2023-04-25T23:03:52;44108.81;;;-146.31;100.00
2036;BME280;23642;42.658;23.350;2023-04-25T23:06:19;44193.22;;;-146.31;100.00
2036;BME280;23642;42.658;23.350;2023-04-25T23:08:46;44532.91;;;-146.31;100.00
2036;BME280;23642;42.658;23.350;2023-04-25T23:11:13;44744.97;;;-146.31;100.00
2036;BME280;23642;42.658;23.350;2023-04-25T23:13:41;44549.38;;;-146.31;100.00
2036;BME280;23642;42.658;23.350;2023-04-25T23:16:09;44380.56;;;-146.31;100.00
2036;BME280;23642;42.658;23.350;2023-04-25T23:18:36;44238.50;;;-146.31;100.00
2036;BME280;23642;42.658;23.350;2023-04-25T23:21:03;44061.47;;;-146.31;100.00
2036;BME280;23642;42.658;23.350;2023-04-25T23:23:32;43857.69;;;-146.31;100.00
2036;BME280;23642;42.658;23.350;2023-04-25T23:25:59;43629.22;;;-146.31;100.00
2036;BME280;23642;42.658;23.350;2023-04-25T23:28:26;43382.25;;;-146.31;100.00
2036;BME280;23642;42.658;23.350;2023-04-25T23:31:02;43061.19;;;-146.31;100.00
2036;BME280;23642;42.658;23.350;2023-04-25T23:33:29;42810.16;;;-146.31;100.00
2036;BME280;23642;42.658;23.350;2023-04-25T23:35:55;42721.66;;;-146.31;100.00
2036;BME280;23642;42.658;23.350;2023-04-25T23:38:22;42670.22;;;-146.31;100.00
2036;BME280;23642;42.658;23.350;2023-04-25T23:40:49;42443.88;;;-146.31;100.00
2036;BME280;23642;42.658;23.350;2023-04-25T23:43:16;42207.28;;;-146.31;100.00
2036;BME280;23642;42.658;23.350;2023-04-25T23:45:43;42118.81;;;-146.31;100.00
2036;BME280;23642;42.658;23.350;2023-04-25T23:48:13;42069.44;;;-146.31;100.00
2036;BME280;23642;42.658;23.350;2023-04-25T23:50:40;42059.16;;;-146.31;100.00
2036;BME280;23642;42.658;23.350;2023-04-25T23:53:07;41902.81;;;-146.31;100.00
2036;BME280;23642;42.658;23.350;2023-04-25T23:55:34;41740.28;;;-146.31;100.00
2036;BME280;23642;42.658;23.350;2023-04-25T23:58:01;41544.88;;;-146.31;100.00
